KMJX/MJX METAR and TAF weather

Enter ICAO airport designator
Station Type Date Time Source
KMJX METAR 2021/07/27 03:56 UTC NOAA

KMJX 270356Z AUTO 00000KT 7SM CLR 21/19 A2995 RMK AO2 SLP143 T02060194 TSNO


Station Type Date Time Source
KMJX Decoded METAR 2021/07/27 03:56 UTC NOAA

Station name not available
Jul 26, 2021 - 11:56 PM EDT / 2021.07.27 0356 UTC
Wind: Calm:0
Visibility: 7 mile(s):0
Sky conditions: clear
Temperature: 69.1 F (20.6 C)
Dew Point: 66.9 F (19.4 C)
Relative Humidity: 92%
Pressure (altimeter): 29.95 in. Hg (1014 hPa)
ob: KMJX 270356Z AUTO 00000KT 7SM CLR 21/19 A2995 RMK AO2 SLP143 T02060194 TSNO
cycle: 4

Station Type Date Time Source
KMJX TAF UTC NOAA

Error!

Example: see airport list